Terminal Aerodrome Forecast
Issued by NWS

Home | Current Version | Previous Version | Text Only | Print | Product List | Glossary On
Versions: 1 2 3 4 5 6 7 8 9 10 11 12 13 14 15 16 17 18 19 20 21 22 23 24 25 26 27 28 29 30 31 32
000
FTUS41 KOKX 301900 AAB
TAFGON
TAF AMD
KGON 301956Z 3020/0118 09010KT P6SM SCT008 SCT035 BKN100
      TEMPO 3020/3022 6SM -RA BKN008
     FM302200 03010KT 5SM -RA BR OVC008
     FM010100 03012KT 3SM -RA BR OVC006
     FM011100 02012G18KT 2SM RA BR OVC005=

USA.gov is the U.S. government's official web portal to all federal, state and local government web resources and services.